Time;durP1;ratioP1;P1;durP2;ratioP2;P2;SDS_P1;SDS_P2;PMS_P1;PMS_P2;Temp;Humidity;BMP_temperature;BMP_pressure;BME280_temperature;BME280_humidity;BME280_pressure;Samples;Min_cycle;Max_cycle;Signal;HPM_P1;HPM_P2
2023/07/29 00:01:05;;;;;;;5.50;3.00;;;;;;;20.77;61.32;94518.81;5090521;28;20590;-42
2023/07/29 00:03:32;;;;;;;3.20;2.88;;;;;;;20.73;61.51;94518.41;5072147;28;20256;-43
2023/07/29 00:05:58;;;;;;;2.75;2.55;;;;;;;20.69;61.46;94519.03;5070674;28;20263;-42
2023/07/29 00:08:24;;;;;;;3.25;2.95;;;;;;;20.66;61.58;94520.22;5071035;28;20186;-42
2023/07/29 00:10:51;;;;;;;3.28;2.97;;;;;;;20.68;61.42;94523.44;5070098;28;20186;-42
2023/07/29 00:13:18;;;;;;;3.88;3.15;;;;;;;20.62;61.44;94513.81;5070321;28;20190;-44
2023/07/29 00:15:46;;;;;;;2.92;2.60;;;;;;;20.65;61.44;94520.44;5069801;28;20661;-42
2023/07/29 00:18:13;;;;;;;2.60;2.40;;;;;;;20.60;61.49;94523.63;5070181;28;20190;-43
2023/07/29 00:20:40;;;;;;;3.00;2.80;;;;;;;20.52;61.46;94516.06;5070228;28;20186;-44
2023/07/29 00:23:06;;;;;;;3.23;2.93;;;;;;;20.48;61.71;94517.47;5070570;28;20202;-42
2023/07/29 00:25:33;;;;;;;2.80;2.60;;;;;;;20.41;61.80;94507.03;5070131;28;20233;-42
2023/07/29 00:28:00;;;;;;;3.47;3.10;;;;;;;20.37;62.04;94516.25;5069956;28;20197;-43
2023/07/29 00:30:27;;;;;;;6.73;2.67;;;;;;;20.29;62.34;94508.66;5069910;28;20222;-43
2023/07/29 00:32:55;;;;;;;3.50;2.63;;;;;;;20.21;62.40;94504.50;5069663;28;20654;-42
2023/07/29 00:35:21;;;;;;;5.53;2.70;;;;;;;20.20;62.61;94504.69;5069906;28;20645;-44
2023/07/29 00:37:49;;;;;;;3.90;3.20;;;;;;;20.17;62.62;94505.09;5069656;28;20654;-42
2023/07/29 00:40:21;;;;;;;3.80;3.50;;;;;;;20.15;62.77;94510.47;5069698;28;20198;-43
2023/07/29 00:42:48;;;;;;;2.83;2.63;;;;;;;20.12;62.89;94510.06;5069847;28;20628;-44
2023/07/29 00:45:15;;;;;;;3.37;2.50;;;;;;;20.10;62.78;94507.69;5069569;28;20213;-41
2023/07/29 00:47:43;;;;;;;3.87;2.87;;;;;;;19.94;62.85;94475.13;5069535;28;20708;-42
2023/07/29 00:50:12;;;;;;;3.93;3.13;;;;;;;19.86;63.08;94474.53;5069888;28;20186;-43
2023/07/29 00:52:39;;;;;;;4.63;3.07;;;;;;;20.03;63.33;94502.50;5069617;28;20201;-43
2023/07/29 00:55:07;;;;;;;3.07;2.50;;;;;;;20.03;63.47;94507.72;5069627;28;20193;-43
2023/07/29 00:57:34;;;;;;;3.23;2.93;;;;;;;20.02;63.56;94511.28;5069523;28;20194;-44
2023/07/29 01:00:02;;;;;;;3.27;2.97;;;;;;;20.03;63.84;94509.47;5070051;28;20198;-43
2023/07/29 01:02:32;;;;;;;2.93;2.63;;;;;;;20.01;63.86;94499.31;5069699;28;20190;-42
2023/07/29 01:05:00;;;;;;;3.93;2.87;;;;;;;20.00;64.16;94502.91;5068778;28;20335;-41
2023/07/29 01:07:34;;;;;;;3.20;2.67;;;;;;;19.99;64.02;94501.31;5069225;28;20197;-42
2023/07/29 01:10:05;;;;;;;3.57;3.20;;;;;;;19.99;63.71;94505.69;5069567;28;20281;-42
2023/07/29 01:12:42;;;;;;;5.50;2.83;;;;;;;19.97;63.85;94498.09;5069505;28;20186;-42
2023/07/29 01:15:15;;;;;;;3.27;2.80;;;;;;;19.73;63.49;94458.00;5069670;28;20205;-42
2023/07/29 01:17:47;;;;;;;2.97;2.67;;;;;;;19.78;64.06;94465.19;5069192;28;20194;-43
2023/07/29 01:20:17;;;;;;;4.33;3.23;;;;;;;19.98;63.76;94504.09;5069511;28;20198;-42
2023/07/29 01:22:45;;;;;;;4.07;3.07;;;;;;;19.93;63.92;94501.31;5069201;28;20240;-42
2023/07/29 01:25:13;;;;;;;3.20;3.00;;;;;;;19.88;64.32;94504.50;5069504;28;20229;-43
2023/07/29 01:27:41;;;;;;;3.03;2.73;;;;;;;19.86;64.35;94498.72;5069415;28;20259;-43
2023/07/29 01:30:09;;;;;;;3.93;2.60;;;;;;;19.84;64.57;94500.69;5069325;28;20222;-43
2023/07/29 01:32:41;;;;;;;3.70;3.17;;;;;;;19.81;64.68;94498.50;5069411;28;20187;-43
2023/07/29 01:35:20;;;;;;;3.30;3.00;;;;;;;19.73;65.01;94496.91;5069381;28;20632;-42
2023/07/29 01:37:52;;;;;;;3.30;3.00;;;;;;;19.72;65.11;94494.50;5069119;28;20559;-42
2023/07/29 01:40:23;;;;;;;3.10;2.80;;;;;;;19.72;65.17;94497.09;5069517;28;20398;-44
2023/07/29 01:42:51;;;;;;;3.13;2.93;;;;;;;19.70;65.44;94497.31;5068860;28;20201;-43
2023/07/29 01:45:18;;;;;;;3.13;2.83;;;;;;;19.68;65.64;94501.09;5069217;28;20221;-43
2023/07/29 01:47:44;;;;;;;5.00;3.10;;;;;;;19.47;65.75;94474.31;5068731;28;20194;-43
2023/07/29 01:50:12;;;;;;;7.27;3.23;;;;;;;19.63;65.80;94499.09;5068984;28;20201;-43
2023/07/29 01:52:38;;;;;;;2.70;2.50;;;;;;;19.59;65.84;94503.03;5069362;28;20202;-43
2023/07/29 01:55:06;;;;;;;3.33;3.03;;;;;;;19.55;65.82;94497.44;5069087;28;20248;-43
2023/07/29 01:57:34;;;;;;;4.27;2.83;;;;;;;19.54;65.93;94497.66;5069213;28;20202;-44
2023/07/29 02:00:02;;;;;;;3.43;3.13;;;;;;;19.52;66.05;94497.06;5069693;28;20195;-44
2023/07/29 02:02:28;;;;;;;5.83;3.10;;;;;;;19.50;66.27;94494.66;5069286;28;20190;-43
2023/07/29 02:04:55;;;;;;;3.07;2.83;;;;;;;19.48;66.22;94496.66;5069194;28;20221;-44
2023/07/29 02:07:22;;;;;;;5.10;3.07;;;;;;;19.46;66.64;94492.66;5068993;28;20198;-45
2023/07/29 02:09:49;;;;;;;3.13;2.90;;;;;;;19.45;66.44;94496.25;5068624;28;20194;-42
2023/07/29 02:12:16;;;;;;;2.93;2.73;;;;;;;19.43;66.50;94495.63;5069067;28;20197;-44
2023/07/29 02:14:44;;;;;;;5.37;3.00;;;;;;;19.42;66.51;94497.44;5069017;28;20187;-43
2023/07/29 02:17:11;;;;;;;3.50;3.20;;;;;;;19.41;66.51;94502.81;5072201;28;20187;-42
2023/07/29 02:19:37;;;;;;;3.37;3.07;;;;;;;19.37;66.69;94504.22;5072412;28;20620;-43
2023/07/29 02:22:04;;;;;;;3.10;2.80;;;;;;;19.37;66.62;94506.81;5072754;28;20587;-42
2023/07/29 02:24:31;;;;;;;3.83;3.20;;;;;;;19.39;66.60;94507.41;5072022;28;20267;-42
2023/07/29 02:26:58;;;;;;;3.10;2.90;;;;;;;19.37;66.71;94515.38;5072560;28;20681;-43
2023/07/29 02:29:25;;;;;;;3.97;2.93;;;;;;;19.32;67.04;94509.97;5072112;28;20190;-43
2023/07/29 02:31:53;;;;;;;3.83;3.30;;;;;;;19.27;67.09;94510.56;5072401;28;20187;-45
2023/07/29 02:34:20;;;;;;;3.80;3.50;;;;;;;19.25;67.51;94515.13;5072020;28;20191;-44
2023/07/29 02:36:47;;;;;;;3.90;2.90;;;;;;;19.18;67.73;94506.56;5072521;28;20187;-42
2023/07/29 02:39:13;;;;;;;3.17;2.97;;;;;;;19.19;67.98;94513.34;5072403;28;20558;-42
2023/07/29 02:41:40;;;;;;;3.50;3.20;;;;;;;19.16;68.12;94503.34;5071766;28;20190;-43
2023/07/29 02:44:07;;;;;;;3.87;3.47;;;;;;;19.16;67.96;94505.16;5072040;28;20183;-43
2023/07/29 02:46:34;;;;;;;6.60;3.77;;;;;;;19.16;67.84;94503.34;5071793;28;20228;-43
2023/07/29 02:49:03;;;;;;;3.37;3.07;;;;;;;19.15;67.99;94508.75;5071873;28;20197;-42
2023/07/29 02:51:29;;;;;;;3.13;2.80;;;;;;;19.16;68.27;94512.91;5072127;28;20205;-43
2023/07/29 02:53:56;;;;;;;3.27;3.00;;;;;;;19.09;68.53;94499.97;5072113;28;20281;-43
2023/07/29 02:56:23;;;;;;;3.53;3.23;;;;;;;19.16;68.49;94512.91;5071616;28;20194;-43
2023/07/29 02:58:51;;;;;;;6.37;3.23;;;;;;;19.16;68.50;94510.34;5071837;28;20259;-43
2023/07/29 03:01:18;;;;;;;8.23;3.40;;;;;;;19.17;68.83;94517.09;5071695;28;20186;-45
2023/07/29 03:03:44;;;;;;;4.77;3.40;;;;;;;19.16;68.93;94512.91;5071868;28;20875;-43
2023/07/29 03:06:14;;;;;;;7.23;3.57;;;;;;;19.15;69.10;94519.09;5071492;28;20221;-43
2023/07/29 03:08:41;;;;;;;3.83;3.53;;;;;;;19.16;69.15;94524.09;5071758;28;20220;-43
2023/07/29 03:11:10;;;;;;;5.23;4.33;;;;;;;19.05;69.39;94520.28;5071265;28;20186;-41
2023/07/29 03:13:36;;;;;;;5.93;3.40;;;;;;;19.07;69.28;94527.84;5071651;28;20190;-43
2023/07/29 03:16:07;;;;;;;5.07;3.77;;;;;;;19.02;69.79;94525.84;5071921;28;20205;-43
2023/07/29 03:18:34;;;;;;;4.77;3.40;;;;;;;19.02;70.06;94520.66;5071418;28;20198;-48
2023/07/29 03:21:01;;;;;;;4.40;4.00;;;;;;;18.97;70.23;94528.22;5071611;28;20285;-42
2023/07/29 03:23:30;;;;;;;8.03;4.23;;;;;;;18.99;70.10;94531.41;5071211;28;20195;-43
2023/07/29 03:25:58;;;;;;;6.90;4.13;;;;;;;19.02;69.98;94533.63;5071476;28;20226;-44
2023/07/29 03:28:27;;;;;;;4.90;3.90;;;;;;;19.03;69.99;94527.44;5070071;28;20213;-45
2023/07/29 03:30:54;;;;;;;4.97;4.37;;;;;;;18.99;70.41;94535.78;5071163;28;20226;-43
2023/07/29 03:33:20;;;;;;;9.90;4.10;;;;;;;18.95;70.70;94532.78;5071169;28;20289;-43
2023/07/29 03:35:47;;;;;;;6.33;3.97;;;;;;;18.90;70.60;94529.19;5071102;28;20643;-44
2023/07/29 03:38:14;;;;;;;7.70;4.50;;;;;;;18.96;70.62;94526.63;5071259;28;21030;-43
2023/07/29 03:40:43;;;;;;;6.60;4.40;;;;;;;19.01;70.76;94531.22;5071391;28;20194;-43
2023/07/29 03:43:10;;;;;;;6.87;4.30;;;;;;;19.01;70.54;94529.44;5070894;28;20205;-43
2023/07/29 03:45:38;;;;;;;7.60;4.40;;;;;;;19.04;70.88;94523.88;5070723;28;20218;-43
2023/07/29 03:48:05;;;;;;;6.77;4.20;;;;;;;19.01;70.60;94526.03;5070936;28;20213;-43
2023/07/29 03:50:34;;;;;;;9.07;4.57;;;;;;;19.00;70.70;94527.84;5071442;28;20201;-43
2023/07/29 03:53:01;;;;;;;7.53;4.27;;;;;;;19.01;70.77;94523.44;5070704;28;20187;-45
2023/07/29 03:55:29;;;;;;;5.97;4.30;;;;;;;19.03;70.77;94527.44;5070703;28;20206;-44
2023/07/29 03:57:57;;;;;;;7.50;4.30;;;;;;;19.07;70.58;94520.06;5070795;28;20630;-44
2023/07/29 04:00:25;;;;;;;5.53;3.73;;;;;;;19.09;70.65;94523.28;5070832;28;20269;-44
2023/07/29 04:02:51;;;;;;;6.63;4.30;;;;;;;19.10;70.77;94527.47;5070816;28;20244;-44
2023/07/29 04:05:19;;;;;;;9.03;4.23;;;;;;;19.14;70.94;94527.88;5070287;28;20643;-44
2023/07/29 04:07:45;;;;;;;7.53;4.13;;;;;;;19.19;70.82;94533.28;5070415;28;20670;-44
2023/07/29 04:10:12;;;;;;;5.90;4.63;;;;;;;19.21;70.82;94536.47;5070627;28;20324;-43
2023/07/29 04:12:39;;;;;;;5.83;4.07;;;;;;;19.24;70.73;94539.47;5070508;28;20186;-43
2023/07/29 04:15:08;;;;;;;4.47;3.77;;;;;;;19.22;70.52;94531.09;5070236;28;20263;-42
2023/07/29 04:17:35;;;;;;;5.87;4.13;;;;;;;19.28;70.38;94527.72;5070290;28;20186;-44
2023/07/29 04:20:02;;;;;;;6.70;4.00;;;;;;;19.35;69.97;94535.53;5070460;28;20578;-43
2023/07/29 04:22:29;;;;;;;5.63;3.87;;;;;;;19.31;69.73;94529.13;5070215;28;20294;-43
2023/07/29 04:24:56;;;;;;;4.33;3.93;;;;;;;19.30;69.95;94527.53;5070018;28;20251;-43
2023/07/29 04:27:22;;;;;;;6.60;4.07;;;;;;;19.30;69.79;94533.53;5070453;28;20198;-43
2023/07/29 04:29:49;;;;;;;5.00;3.60;;;;;;;19.35;69.80;94539.91;5069778;28;20226;-43
2023/07/29 04:32:17;;;;;;;5.73;3.80;;;;;;;19.42;69.58;94538.91;5070462;28;20578;-45
2023/07/29 04:34:44;;;;;;;4.57;4.17;;;;;;;19.47;69.07;94546.94;5070518;28;20251;-43
2023/07/29 04:37:11;;;;;;;4.33;3.93;;;;;;;19.51;68.85;94542.13;5069817;28;20190;-43
2023/07/29 04:39:38;;;;;;;4.10;3.70;;;;;;;19.57;68.81;94541.38;5069761;28;20654;-42
2023/07/29 04:42:06;;;;;;;8.97;3.67;;;;;;;19.61;68.75;94539.22;5069609;28;20619;-43
2023/07/29 04:44:33;;;;;;;5.50;3.90;;;;;;;19.67;68.33;94543.59;5069752;28;20199;-42
2023/07/29 04:47:00;;;;;;;4.30;3.80;;;;;;;19.67;68.22;94536.63;5069977;28;20214;-43
2023/07/29 04:49:28;;;;;;;7.13;3.70;;;;;;;19.77;67.87;94534.44;5070167;28;20218;-43
2023/07/29 04:51:57;;;;;;;8.17;3.60;;;;;;;19.73;67.86;94529.81;5069644;28;20194;-43
2023/07/29 04:54:24;;;;;;;9.43;3.73;;;;;;;19.89;67.70;94541.63;5069728;28;20197;-43
2023/07/29 04:56:51;;;;;;;4.87;3.53;;;;;;;19.97;67.71;94550.03;5069730;28;20213;-43
2023/07/29 04:59:20;;;;;;;6.07;4.47;;;;;;;20.00;67.41;94552.22;5069773;28;20646;-44
2023/07/29 05:01:48;;;;;;;8.53;5.03;;;;;;;20.08;67.27;94556.44;5068299;28;20194;-43
2023/07/29 05:04:15;;;;;;;6.00;4.43;;;;;;;20.12;67.33;94562.81;5069604;28;20713;-44
2023/07/29 05:06:46;;;;;;;4.67;3.70;;;;;;;20.26;67.01;94563.63;5069598;28;20244;-43
2023/07/29 05:09:17;;;;;;;7.93;4.93;;;;;;;20.50;66.45;94564.81;5069873;28;20182;-44
2023/07/29 05:11:45;;;;;;;5.93;4.13;;;;;;;20.79;65.61;94558.38;5069244;28;20198;-44
2023/07/29 05:14:12;;;;;;;5.55;4.63;;;;;;;21.19;64.15;94568.63;5069529;28;20193;-43
2023/07/29 05:16:39;;;;;;;5.83;4.40;;;;;;;21.59;63.48;94573.69;5069605;28;20190;-43
2023/07/29 05:19:06;;;;;;;9.05;4.35;;;;;;;22.01;61.93;94560.00;5069697;28;20198;-45
2023/07/29 05:21:33;;;;;;;9.07;4.78;;;;;;;22.51;60.05;94578.28;5069837;28;20194;-45
2023/07/29 05:24:01;;;;;;;6.40;4.78;;;;;;;22.84;58.87;94565.91;5069276;28;20182;-44
2023/07/29 05:26:28;;;;;;;7.40;4.88;;;;;;;23.24;58.16;94580.16;5069568;28;20210;-42
2023/07/29 05:28:54;;;;;;;6.30;4.53;;;;;;;23.63;56.76;94565.03;5069805;28;20573;-44
2023/07/29 05:31:21;;;;;;;6.78;4.50;;;;;;;23.99;55.19;94576.41;5069282;28;20550;-44
2023/07/29 05:33:48;;;;;;;11.07;5.13;;;;;;;24.22;54.59;94571.22;5069512;28;20185;-43
2023/07/29 05:36:15;;;;;;;7.07;4.75;;;;;;;24.25;54.22;94578.59;5069646;28;20190;-42
2023/07/29 05:38:42;;;;;;;9.55;4.03;;;;;;;24.48;53.34;94582.28;5069347;28;20190;-42
2023/07/29 05:41:11;;;;;;;6.25;4.55;;;;;;;24.83;53.05;94576.25;5069477;28;20208;-42
2023/07/29 05:43:38;;;;;;;5.30;4.35;;;;;;;25.19;51.23;94578.63;5069516;28;20199;-47
2023/07/29 05:46:05;;;;;;;7.32;4.30;;;;;;;25.33;51.27;94579.16;5069332;28;20225;-43
2023/07/29 05:48:32;;;;;;;5.47;3.95;;;;;;;25.63;50.27;94576.34;5068965;28;20642;-45
2023/07/29 05:50:59;;;;;;;8.55;5.10;;;;;;;25.93;49.53;94583.97;5071225;28;20189;-43
2023/07/29 05:53:26;;;;;;;8.73;4.72;;;;;;;26.14;49.55;94577.25;5073222;28;20186;-43
2023/07/29 05:55:53;;;;;;;7.25;4.22;;;;;;;26.43;48.43;94577.19;5073235;28;20193;-43
2023/07/29 05:58:21;;;;;;;7.40;4.45;;;;;;;26.46;48.58;94566.22;5073471;28;20197;-42
2023/07/29 06:00:48;;;;;;;6.45;5.03;;;;;;;26.56;47.39;94563.78;5073062;28;20255;-42
2023/07/29 06:03:14;;;;;;;7.80;4.07;;;;;;;26.86;46.90;94588.88;5073208;28;20936;-43
2023/07/29 06:05:41;;;;;;;8.55;4.72;;;;;;;26.93;47.03;94592.88;5072710;28;20229;-42
2023/07/29 06:08:09;;;;;;;8.48;4.35;;;;;;;27.09;46.32;94590.47;5073054;28;20190;-43
2023/07/29 06:10:35;;;;;;;4.85;4.35;;;;;;;27.11;46.32;94575.28;5072640;28;20273;-44
2023/07/29 06:13:02;;;;;;;6.50;5.05;;;;;;;27.39;46.01;94587.47;5072892;28;20197;-43
2023/07/29 06:15:30;;;;;;;10.70;5.13;;;;;;;27.78;44.90;94582.94;5072847;28;20198;-44
2023/07/29 06:17:57;;;;;;;9.15;5.10;;;;;;;27.94;44.61;94583.88;5072850;28;20202;-44
2023/07/29 06:20:24;;;;;;;8.18;4.70;;;;;;;27.86;44.47;94576.44;5072649;28;20178;-41
2023/07/29 06:22:51;;;;;;;9.32;4.82;;;;;;;27.92;44.70;94581.47;5072978;28;20192;-43
2023/07/29 06:25:17;;;;;;;5.97;4.40;;;;;;;27.92;44.84;94567.56;5072306;28;20186;-45
2023/07/29 06:27:44;;;;;;;9.35;4.68;;;;;;;28.00;44.08;94565.25;5072788;28;20226;-44
2023/07/29 06:30:11;;;;;;;5.25;4.28;;;;;;;28.11;43.89;94567.97;5072581;28;20226;-44
2023/07/29 06:32:39;;;;;;;4.65;4.18;;;;;;;28.13;44.10;94571.94;5072297;28;20190;-44
2023/07/29 06:35:07;;;;;;;7.45;3.85;;;;;;;28.22;43.84;94564.41;5072565;28;20198;-43
2023/07/29 06:37:34;;;;;;;6.40;4.05;;;;;;;28.61;43.46;94567.59;5072226;28;20178;-43
2023/07/29 06:40:01;;;;;;;6.55;4.20;;;;;;;28.97;42.54;94563.38;5072205;28;20285;-44
2023/07/29 06:42:27;;;;;;;5.88;3.90;;;;;;;29.20;41.21;94556.13;5072205;28;20198;-45
2023/07/29 06:44:54;;;;;;;4.80;4.00;;;;;;;29.28;41.74;94557.47;5072191;28;20570;-44
2023/07/29 06:47:21;;;;;;;11.20;4.22;;;;;;;29.55;40.45;94552.00;5072013;28;20225;-44
2023/07/29 06:49:49;;;;;;;4.75;3.60;;;;;;;29.55;40.50;94557.28;5072408;28;20186;-45
2023/07/29 06:52:16;;;;;;;5.70;3.70;;;;;;;29.43;40.20;94566.19;5071942;28;20194;-44
2023/07/29 06:54:42;;;;;;;4.22;3.25;;;;;;;29.33;40.34;94533.78;5072264;28;20182;-44
2023/07/29 06:57:09;;;;;;;4.75;3.63;;;;;;;29.75;40.70;94562.66;5071682;28;20201;-44
2023/07/29 06:59:36;;;;;;;5.03;3.50;;;;;;;30.12;39.82;94559.00;5072100;28;20307;-42
2023/07/29 07:02:03;;;;;;;7.38;3.72;;;;;;;30.42;39.29;94563.50;5071953;28;20190;-45
2023/07/29 07:04:30;;;;;;;6.18;3.15;;;;;;;30.60;39.05;94562.16;5072087;28;20182;-45
2023/07/29 07:06:58;;;;;;;4.07;3.08;;;;;;;30.89;38.86;94565.06;5071741;28;20218;-50
2023/07/29 07:09:25;;;;;;;4.38;3.63;;;;;;;31.16;38.05;94565.50;5071391;28;20198;-44
2023/07/29 07:11:52;;;;;;;4.55;3.80;;;;;;;31.36;37.16;94562.03;5071973;28;20259;-43
2023/07/29 07:14:20;;;;;;;4.00;3.17;;;;;;;31.50;37.33;94567.50;5071444;28;20200;-43
2023/07/29 07:16:48;;;;;;;5.47;3.78;;;;;;;31.71;37.14;94561.03;5071644;28;20202;-42
2023/07/29 07:19:15;;;;;;;5.30;3.38;;;;;;;31.80;36.65;94557.81;5071344;28;20303;-44
2023/07/29 07:21:43;;;;;;;7.22;3.58;;;;;;;31.87;36.27;94550.41;5071466;28;20676;-44
2023/07/29 07:24:11;;;;;;;10.75;4.03;;;;;;;31.92;36.30;94555.66;5071428;28;20221;-44
2023/07/29 07:26:38;;;;;;;4.95;3.28;;;;;;;31.82;36.40;94560.97;5071176;28;20690;-45
2023/07/29 07:29:06;;;;;;;6.47;3.88;;;;;;;31.63;36.56;94551.03;5071516;28;20198;-43
2023/07/29 07:31:34;;;;;;;7.75;3.47;;;;;;;31.35;36.82;94539.31;5071302;28;20254;-43
2023/07/29 07:34:02;;;;;;;4.25;3.28;;;;;;;31.30;37.31;94551.72;5071182;28;20194;-44
2023/07/29 07:36:30;;;;;;;5.25;3.53;;;;;;;31.23;37.75;94546.72;5073038;28;20245;-44
2023/07/29 07:38:57;;;;;;;4.85;3.67;;;;;;;31.15;37.16;94544.63;5071904;28;20222;-44
2023/07/29 07:41:25;;;;;;;7.93;3.70;;;;;;;31.22;37.73;94551.22;5071107;28;20182;-44
2023/07/29 07:43:52;;;;;;;6.85;3.78;;;;;;;31.50;37.25;94542.91;5071187;28;20198;-44
2023/07/29 07:46:20;;;;;;;3.95;3.20;;;;;;;31.61;36.88;94542.59;5071290;28;20272;-45
2023/07/29 07:48:48;;;;;;;5.35;3.58;;;;;;;31.46;36.28;94493.22;5070768;28;20190;-43
2023/07/29 07:51:16;;;;;;;6.55;3.47;;;;;;;31.81;35.99;94543.53;5071011;28;20186;-43
2023/07/29 07:53:42;;;;;;;3.70;3.40;;;;;;;31.57;36.35;94549.50;5071086;28;20182;-42
2023/07/29 07:56:09;;;;;;;5.38;3.58;;;;;;;31.53;36.24;94553.75;5071015;28;20194;-43
2023/07/29 07:58:39;;;;;;;5.53;3.13;;;;;;;31.48;36.62;94553.78;5070726;28;20206;-43
2023/07/29 08:01:07;;;;;;;5.05;3.45;;;;;;;31.59;36.69;94547.34;5070410;28;20182;-43
2023/07/29 08:03:35;;;;;;;6.18;3.42;;;;;;;31.82;35.74;94555.69;5069527;28;20277;-43
2023/07/29 08:06:02;;;;;;;5.93;3.47;;;;;;;31.80;35.56;94553.31;5070443;28;20187;-44
2023/07/29 08:08:28;;;;;;;7.13;3.28;;;;;;;31.79;36.20;94549.09;5069276;28;20727;-45
2023/07/29 08:10:57;;;;;;;6.22;3.67;;;;;;;31.95;36.32;94547.16;5070527;28;20193;-42
2023/07/29 08:13:24;;;;;;;5.45;3.67;;;;;;;32.07;36.14;94544.97;5070158;28;20585;-44
2023/07/29 08:15:53;;;;;;;3.38;3.05;;;;;;;32.20;35.48;94554.13;5070362;28;20295;-43
2023/07/29 08:18:20;;;;;;;5.78;3.90;;;;;;;32.20;35.66;94554.91;5070364;28;20198;-42
2023/07/29 08:20:55;;;;;;;3.58;3.10;;;;;;;32.08;35.91;94561.63;5070518;28;20183;-45
2023/07/29 08:23:22;;;;;;;6.30;3.85;;;;;;;32.00;35.85;94555.09;5070246;28;20185;-43
2023/07/29 08:25:55;;;;;;;4.28;3.35;;;;;;;31.93;36.40;94549.31;5070138;28;20190;-44
2023/07/29 08:28:23;;;;;;;4.88;3.63;;;;;;;32.02;35.50;94554.81;5070321;28;20226;-44
2023/07/29 08:30:50;;;;;;;3.55;3.22;;;;;;;32.01;35.56;94554.00;5069760;28;20218;-44
2023/07/29 08:33:19;;;;;;;5.75;3.38;;;;;;;32.20;35.20;94549.63;5070301;28;20198;-44
2023/07/29 08:35:48;;;;;;;7.97;3.85;;;;;;;32.27;35.16;94559.13;5069926;28;20217;-43
2023/07/29 08:38:15;;;;;;;3.25;2.90;;;;;;;32.40;34.74;94553.22;5069971;28;20205;-43
2023/07/29 08:40:47;;;;;;;5.97;3.13;;;;;;;32.48;34.54;94547.31;5070112;28;20229;-45
2023/07/29 08:43:18;;;;;;;7.40;3.10;;;;;;;32.59;34.38;94538.19;5069841;28;20186;-44
2023/07/29 08:45:45;;;;;;;4.40;3.28;;;;;;;32.68;34.49;94538.38;5070030;28;20666;-45
2023/07/29 08:48:17;;;;;;;4.30;3.63;;;;;;;32.74;34.50;94533.84;5068293;28;20294;-42
2023/07/29 08:50:46;;;;;;;5.45;3.50;;;;;;;32.77;34.86;94535.91;5069902;28;20189;-43
2023/07/29 08:53:14;;;;;;;9.32;3.50;;;;;;;32.90;34.36;94535.22;5069429;28;20209;-45
2023/07/29 08:55:41;;;;;;;3.70;3.20;;;;;;;32.82;33.75;94526.06;5070147;28;20243;-43
2023/07/29 08:58:08;;;;;;;6.07;3.25;;;;;;;32.68;33.45;94507.38;5069578;28;20190;-44
2023/07/29 09:00:36;;;;;;;4.32;2.70;;;;;;;32.50;33.23;94528.50;5069490;28;20194;-43
2023/07/29 09:03:06;;;;;;;7.55;2.63;;;;;;;32.44;33.27;94522.47;5069553;28;20201;-44
2023/07/29 09:05:33;;;;;;;4.10;2.50;;;;;;;32.68;33.01;94530.44;5070129;28;20202;-46
2023/07/29 09:08:03;;;;;;;3.22;2.53;;;;;;;32.84;32.51;94529.22;5069090;28;20229;-43
2023/07/29 09:10:30;;;;;;;7.53;2.42;;;;;;;32.91;31.58;94524.41;5069774;28;20186;-43
2023/07/29 09:12:58;;;;;;;4.95;2.88;;;;;;;32.88;31.89;94524.94;5069409;28;20195;-43
2023/07/29 09:15:29;;;;;;;7.90;2.80;;;;;;;32.78;32.17;94517.09;5051799;28;20271;-43
2023/07/29 09:17:57;;;;;;;9.35;2.90;;;;;;;32.89;32.56;94518.56;5069671;28;20232;-42
2023/07/29 09:20:27;;;;;;;3.03;2.63;;;;;;;33.03;32.99;94509.94;5069412;28;20205;-43
2023/07/29 09:22:59;;;;;;;4.13;2.30;;;;;;;33.11;31.90;94512.75;5069355;28;20281;-43
2023/07/29 09:25:28;;;;;;;2.65;2.45;;;;;;;33.15;31.92;94513.00;5070317;28;20197;-44
2023/07/29 09:27:59;;;;;;;5.50;2.75;;;;;;;33.13;31.71;94505.34;5073931;28;20271;-44
2023/07/29 09:30:26;;;;;;;2.50;2.30;;;;;;;33.11;31.45;94499.50;5073993;28;20230;-45
2023/07/29 09:32:56;;;;;;;3.28;2.30;;;;;;;33.10;31.81;94510.41;5073724;28;20228;-43
2023/07/29 09:35:23;;;;;;;4.40;2.00;;;;;;;33.08;31.26;94501.97;5073580;28;20194;-43
2023/07/29 09:37:49;;;;;;;2.22;2.00;;;;;;;32.81;31.22;94503.28;5073305;28;20186;-43
2023/07/29 09:40:17;;;;;;;2.42;2.17;;;;;;;32.63;31.90;94493.41;5073810;28;20186;-43
2023/07/29 09:42:51;;;;;;;4.07;2.35;;;;;;;32.59;32.19;94497.69;5073136;28;20217;-44
2023/07/29 09:45:24;;;;;;;2.53;2.33;;;;;;;32.46;32.08;94489.34;5073290;28;20251;-43
2023/07/29 09:47:52;;;;;;;2.92;2.25;;;;;;;32.41;31.82;94488.59;5072880;28;20256;-44
2023/07/29 09:50:19;;;;;;;2.70;2.33;;;;;;;32.45;31.96;94487.75;5073454;28;20212;-44
2023/07/29 09:52:46;;;;;;;4.32;2.20;;;;;;;32.53;32.25;94485.59;5072807;28;20248;-43
2023/07/29 09:55:13;;;;;;;2.80;1.90;;;;;;;32.59;31.44;94485.22;5073014;28;20205;-44
2023/07/29 09:57:41;;;;;;;3.03;1.77;;;;;;;32.46;31.38;94484.03;5073173;28;20677;-42
2023/07/29 10:00:12;;;;;;;2.58;1.92;;;;;;;32.41;31.69;94481.44;5072864;28;20183;-44
2023/07/29 10:02:40;;;;;;;6.20;1.92;;;;;;;32.37;32.12;94485.69;5073043;28;20191;-45
2023/07/29 10:05:09;;;;;;;3.83;1.95;;;;;;;32.32;31.89;94469.06;5072771;28;20183;-44
2023/07/29 10:07:38;;;;;;;4.50;2.00;;;;;;;32.45;32.08;94471.88;5072887;28;20210;-44
2023/07/29 10:10:06;;;;;;;6.20;2.53;;;;;;;32.56;31.76;94477.88;5072463;28;20267;-44
2023/07/29 10:12:33;;;;;;;2.28;1.50;;;;;;;32.53;31.05;94477.63;5072905;28;20221;-45
2023/07/29 10:15:02;;;;;;;2.10;1.90;;;;;;;32.50;31.18;94472.91;5073064;28;20595;-46
2023/07/29 10:17:30;;;;;;;4.75;2.00;;;;;;;32.43;31.20;94468.72;5073101;28;20198;-46
2023/07/29 10:19:58;;;;;;;2.30;1.90;;;;;;;31.98;31.45;94412.47;5072780;28;20186;-45
2023/07/29 10:22:28;;;;;;;6.93;1.70;;;;;;;32.31;30.69;94460.34;5072651;28;20186;-44
2023/07/29 10:25:00;;;;;;;4.28;2.05;;;;;;;32.26;31.17;94456.97;5072319;28;20746;-43
2023/07/29 10:27:29;;;;;;;2.38;2.17;;;;;;;32.15;31.24;94446.47;5072380;28;20217;-43
2023/07/29 10:29:56;;;;;;;1.55;1.45;;;;;;;32.01;31.38;94434.16;5072208;28;20283;-44
2023/07/29 10:32:26;;;;;;;3.95;1.90;;;;;;;32.15;30.92;94448.31;5072708;28;20222;-44
2023/07/29 10:34:55;;;;;;;1.55;1.42;;;;;;;32.16;30.76;94448.03;5072498;28;20270;-44
2023/07/29 10:37:24;;;;;;;2.05;1.70;;;;;;;32.03;30.12;94440.75;5071816;28;20283;-46
2023/07/29 10:39:55;;;;;;;1.83;1.63;;;;;;;31.84;30.85;94416.06;5072107;28;20194;-44
2023/07/29 10:42:22;;;;;;;1.80;1.70;;;;;;;32.06;30.77;94434.13;5072415;28;20194;-44
2023/07/29 10:44:51;;;;;;;1.63;1.50;;;;;;;32.14;30.93;94439.59;5071825;28;20308;-43
2023/07/29 10:47:22;;;;;;;1.17;1.17;;;;;;;32.17;29.96;94432.97;5072393;28;20694;-42
2023/07/29 10:49:52;;;;;;;2.90;1.90;;;;;;;32.06;30.08;94434.13;5071779;28;20553;-43
2023/07/29 10:52:31;;;;;;;1.55;1.30;;;;;;;31.93;30.29;94427.63;5072476;28;20200;-43
2023/07/29 10:54:59;;;;;;;1.40;1.30;;;;;;;32.01;30.35;94424.38;5071954;28;20186;-43
2023/07/29 10:57:32;;;;;;;1.80;1.70;;;;;;;32.09;30.41;94429.06;5072147;28;20277;-44
2023/07/29 10:59:59;;;;;;;1.13;1.08;;;;;;;32.22;30.94;94422.31;5072110;28;20261;-44
2023/07/29 11:02:30;;;;;;;1.98;1.88;;;;;;;32.31;30.69;94406.63;5071922;28;20186;-43
2023/07/29 11:04:57;;;;;;;1.65;1.55;;;;;;;32.34;30.56;94412.16;5071551;28;20573;-44
2023/07/29 11:07:28;;;;;;;2.05;1.77;;;;;;;32.36;30.53;94403.91;5071933;28;20217;-42
2023/07/29 11:10:02;;;;;;;3.55;1.90;;;;;;;32.41;30.24;94407.31;5071411;28;20194;-43
2023/07/29 11:12:47;;;;;;;1.98;1.65;;;;;;;32.39;30.39;94406.03;5071678;28;20197;-42
2023/07/29 11:15:21;;;;;;;1.63;1.50;;;;;;;32.35;29.88;94405.78;5072279;28;20198;-44
2023/07/29 11:17:50;;;;;;;2.42;2.03;;;;;;;32.14;29.99;94402.53;5072962;28;20223;-44
2023/07/29 11:20:18;;;;;;;1.95;1.30;;;;;;;32.03;30.25;94402.91;5072143;28;20198;-44
2023/07/29 11:22:45;;;;;;;2.28;1.60;;;;;;;31.87;29.99;94387.19;5071708;28;20190;-44
2023/07/29 11:25:15;;;;;;;1.70;1.60;;;;;;;32.05;30.14;94401.59;5071135;28;20186;-44
2023/07/29 11:27:42;;;;;;;1.40;1.30;;;;;;;32.10;29.74;94382.22;5071124;28;20222;-43
2023/07/29 11:30:10;;;;;;;1.80;1.70;;;;;;;32.28;29.05;94404.53;5071037;28;20690;-43
2023/07/29 11:32:38;;;;;;;3.10;1.55;;;;;;;32.23;29.37;94403.50;5071786;28;20185;-43
2023/07/29 11:35:07;;;;;;;1.95;1.75;;;;;;;32.25;29.57;94394.50;5070932;28;20596;-43
2023/07/29 11:37:34;;;;;;;2.28;1.63;;;;;;;32.28;29.34;94393.94;5071563;28;20233;-45